Aviation Digital Data Service (ADDS)

Output produced by METARs form (0638 UTC 24 March 2019)
found at http://www.aviationweather.gov/metar/data/
 
KBHK 240551Z AUTO 12009KT 4SM BR BKN100 03/02 A2999 RMK AO2 SLP173 T00280022 10100 20022 53010
K6S0 240615Z AUTO 26007KT 10SM OVC070 02/M03 A3005 RMK A01
KBIL 240553Z 00000KT 10SM FEW140 07/M01 A3001 RMK AO2 SLP165 T00721006 10144 20056 51014 $
KBIL 240528Z 2406/2506 33007KT P6SM SCT120 
     FM241200 34006KT P6SM VCSH SCT030 BKN050 
     FM241800 04007KT P6SM VCSH BKN025 OVC040
       
KBZN 240556Z 00000KT 10SM CLR M01/M05 A3005 RMK AO2 SLP198 T10061050 10089 21017 51008
KBZN 240538Z 2406/2512 21003KT P6SM SCT100 
     FM241700 35004KT P6SM SCT060 BKN120 
     PROB30 2500/2503 -SHRA BKN040 
     FM250300 VRB03KT P6SM VCSH SCT040 BKN060 
     FM250900 13003KT P6SM SCT050 BKN070
       
KBTM 240553Z AUTO 13004KT 10SM CLR M03/M06 A3007 RMK AO2 SLP207 T10281056 10061 21028 51004
KBTM 240520Z 2406/2506 13005KT P6SM SKC 
     FM241700 VRB04KT P6SM OVC090 
     FM242200 18007KT P6SM VCSH OVC050
       
KDLN 240553Z AUTO 15005KT 10SM SCT065 M01/M03 A3002 RMK AO2 SLP175 T10111028 10111 21011 50004
KEKS 240615Z AUTO 11003KT 10SM CLR M01/M04 A3008 RMK AO2
KEKS 240538Z 2406/2506 14003KT P6SM SCT100 
     FM241700 36007KT P6SM SCT060 BKN120 
     PROB30 2500/2503 -SHRA BKN040 
     FM250300 VRB03KT P6SM VCSH SCT040 BKN060
       
KGGW 240553Z AUTO 06003KT 10SM OVC090 04/01 A3001 RMK AO2 SLP181 T00390011 10078 20033 53016
KGGW 240525Z 2406/2506 06010KT P6SM VCSH OVC080 
     TEMPO 2410/2412 4SM -RA BKN007 
     FM241200 07018KT 5SM -SNRA BR OVC009 
     TEMPO 2412/2415 2SM -RAPL OVC005 
     FM241500 08025G34KT 4SM -RASN OVC007 
     PROB30 2415/2418 1SM -SN 
     FM242100 09015KT 2SM -RASN OVC009
       
KGDV 240556Z AUTO 06005KT 10SM OVC100 05/04 A3000 RMK AO2 SLP170 T00500039 10122 20044 53012
KGDV 240525Z 2406/2506 VRB06KT P6SM BKN150 
     FM240700 VRB06KT P6SM VCSH BKN015 
     FM241200 05010KT 5SM -SHRA BR OVC007 
     FM241500 08012KT 5SM -SNRA BR OVC005 
     PROB30 2415/2420 2SM -SN OVC003
       
KGTF 240553Z 22007KT 10SM CLR 02/00 A3002 RMK AO2 SLP192 T00170000 10100 20017 51009 $
KGTF 240538Z 2406/2506 30010KT P6SM SCT100 BKN150 
     FM241300 01005KT P6SM SCT050 BKN100 
     FM250200 05005KT P6SM VCSH SCT030 BKN050
       
KHVR 240553Z AUTO 04005KT 10SM CLR 04/02 A3002 RMK AO2 SLP183 T00390022 10094 20033 51014
KHVR 240538Z 2406/2506 07005KT P6SM SCT080 BKN100 
     FM241300 05011KT P6SM SCT030 BKN050 
     TEMPO 2415/2418 3SM -SNRA BR BKN010 
     FM241800 06009KT 5SM -SHSN BR SCT008 BKN015 
     FM250000 08005KT P6SM SCT010 BKN025
       
KHLN 240553Z AUTO 00000KT 10SM CLR 02/M02 A3004 RMK AO2 SLP210 T00171022 10106 20011 51008
KHLN 240538Z 2406/2506 VRB03KT P6SM SCT150 
     FM241400 32004KT P6SM SCT050 BKN100 
     FM250200 29005KT P6SM VCSH SCT030 BKN050
       
KJDN 240548Z AUTO 36004KT 06/03 A3000 RMK AO1 SLP171 T00560033 10122 20056 51012
KGPI 240555Z AUTO 00000KT 10SM CLR 00/M02 A3006 RMK AO2 SLP197 T00001022 10100 21006 50004
KGPI 240520Z 2406/2506 17007KT P6SM SCT060 
     FM241000 02011KT P6SM OVC050
       
KLWT 240554Z AUTO 00000KT 10SM CLR 00/M03 A3002 RMK AO2 SLP181 T00001033 10083 21006 51010
KLWT 240538Z 2406/2506 14005KT P6SM SCT100 BKN150 
     FM241300 09005KT P6SM SCT050 BKN100 
     FM250200 06005KT P6SM SCT030 BKN050
       
KLVM 240553Z AUTO 32005KT 10SM CLR M01/M03 A3004 RMK AO2 SLPNO T10061033 10083 21028 51009
KLVM 240528Z 2406/2506 28007KT P6SM SCT050 
     FM241100 05007KT P6SM VCSH BKN050 
     FM242100 VRB05KT 5SM -SHRA BR SCT025 OVC050
       
KM75 240615Z AUTO 00000KT 10SM BKN075 OVC095 05/05 A3001 RMK A01
KMLS 240553Z AUTO 28005KT 8SM SCT055 SCT070 OVC085 06/04 A2997 RMK AO2 SLP155 T00560044 10128 20056 51012 $
KMLS 240528Z 2406/2506 31006KT P6SM VCSH OVC080 
     FM240900 08006KT 5SM -SHRA BR SCT025 OVC050 
     FM241500 11011G20KT 4SM -SHRA BR SCT025 OVC040
       
KMSO 240553Z AUTO 00000KT 10SM CLR 01/M02 A3005 RMK AO2 SLP199 T00111022 10100 20011 51003
KMSO 240520Z 2406/2506 VRB03KT P6SM SKC 
     FM241500 11007KT P6SM SCT070 
     FM242200 04008KT P6SM VCSH OVC100
       
KSDY 240556Z AUTO 07003KT 6SM BR BKN055 04/03 A3002 RMK AO2 SLP183 T00440033 10144 20044 51014
KSDY 240525Z 2406/2506 VRB04KT P6SM OVC110 
     FM241000 05010KT P6SM OVC011 
     FM242200 08012KT 6SM -RA OVC016 
     PROB30 2503/2505 4SM -FZRASN OVC009 
     FM250500 11010KT P6SM OVC016 
     PROB30 2505/2506 4SM -FZRASN OVC009
       
KWYS 240635Z AUTO 00000KT 10SM CLR M04/M04 A3004 RMK AO2
KOLF 240553Z AUTO 00000KT 7SM SCT034 SCT110 03/02 A3002 RMK AO2 SLP182 T00330017 10078 20028 51014 $
KOLF 240525Z 2406/2506 VRB06KT P6SM OVC090 
     TEMPO 2411/2413 4SM -RA BKN006 
     FM241300 06016KT 6SM BR OVC007 
     FM242000 08014KT 3SM -SNRA OVC011 
     FM250300 08010KT 5SM -SN OVC017 
     PROB30 2504/2506 2SM -FZRA OVC009